Time;durP1;ratioP1;P1;durP2;ratioP2;P2;SDS_P1;SDS_P2;PMS_P1;PMS_P2;Temp;Humidity;BMP_temperature;BMP_pressure;BME280_temperature;BME280_humidity;BME280_pressure;Samples;Min_cycle;Max_cycle;Signal;HPM_P1;HPM_P2
2021/08/06 00:00:53;;;;;;;1.55;1.33;;;;;;;21.64;70.54;99526.00;;;;-58
2021/08/06 00:03:53;;;;;;;2.63;1.53;;;;;;;21.63;70.54;99524.54;;;;-57
2021/08/06 00:06:53;;;;;;;2.96;1.45;;;;;;;21.63;70.56;99520.30;;;;-56
2021/08/06 00:09:53;;;;;;;1.93;1.40;;;;;;;21.63;70.51;99521.28;;;;-58
2021/08/06 00:12:53;;;;;;;2.19;1.40;;;;;;;21.62;70.57;99516.48;;;;-57
2021/08/06 00:15:53;;;;;;;2.14;1.48;;;;;;;21.62;70.52;99518.86;;;;-56
2021/08/06 00:18:53;;;;;;;1.57;1.45;;;;;;;21.62;70.57;99517.31;;;;-58
2021/08/06 00:21:53;;;;;;;1.55;1.41;;;;;;;21.61;70.60;99514.32;;;;-57
2021/08/06 00:24:53;;;;;;;1.50;1.40;;;;;;;21.60;70.59;99511.73;;;;-56
2021/08/06 00:27:53;;;;;;;1.76;1.50;;;;;;;21.60;70.52;99512.05;;;;-56
2021/08/06 00:30:53;;;;;;;1.97;1.39;;;;;;;21.60;70.51;99509.75;;;;-56
2021/08/06 00:33:53;;;;;;;1.82;1.44;;;;;;;21.59;70.58;99501.31;;;;-52
2021/08/06 00:36:53;;;;;;;2.20;1.40;;;;;;;21.58;70.60;99500.58;;;;-52
2021/08/06 00:39:53;;;;;;;1.55;1.26;;;;;;;21.58;70.58;99497.73;;;;-51
2021/08/06 00:42:53;;;;;;;1.59;1.40;;;;;;;21.57;70.58;99489.27;;;;-51
2021/08/06 00:45:53;;;;;;;1.58;1.48;;;;;;;21.57;70.58;99490.58;;;;-51
2021/08/06 00:48:53;;;;;;;1.49;1.39;;;;;;;21.57;70.56;99486.67;;;;-53
2021/08/06 00:51:53;;;;;;;1.61;1.30;;;;;;;21.56;70.58;99487.09;;;;-51
2021/08/06 00:54:53;;;;;;;1.67;1.40;;;;;;;21.56;70.64;99487.34;;;;-51
2021/08/06 00:57:53;;;;;;;1.56;1.43;;;;;;;21.56;70.65;99489.94;;;;-52
2021/08/06 01:00:53;;;;;;;1.37;1.27;;;;;;;21.55;70.59;99489.13;;;;-56
2021/08/06 01:03:53;;;;;;;1.65;1.40;;;;;;;21.55;70.60;99490.86;;;;-57
2021/08/06 01:06:53;;;;;;;1.45;1.30;;;;;;;21.54;70.66;99483.94;;;;-57
2021/08/06 01:09:53;;;;;;;1.84;1.29;;;;;;;21.54;70.64;99484.60;;;;-56
2021/08/06 01:12:53;;;;;;;1.98;1.40;;;;;;;21.53;70.68;99479.39;;;;-58
2021/08/06 01:15:53;;;;;;;1.71;1.49;;;;;;;21.54;70.64;99481.49;;;;-56
2021/08/06 01:18:53;;;;;;;1.71;1.43;;;;;;;21.53;70.63;99480.04;;;;-57
2021/08/06 01:21:53;;;;;;;1.61;1.40;;;;;;;21.52;70.59;99480.80;;;;-56
2021/08/06 01:24:53;;;;;;;2.24;1.29;;;;;;;21.53;70.63;99475.73;;;;-57
2021/08/06 01:27:53;;;;;;;1.63;1.37;;;;;;;21.53;70.61;99477.84;;;;-57
2021/08/06 01:30:53;;;;;;;1.58;1.40;;;;;;;21.52;70.68;99477.05;;;;-57
2021/08/06 01:33:53;;;;;;;1.81;1.38;;;;;;;21.52;70.64;99479.16;;;;-56
2021/08/06 01:36:53;;;;;;;2.13;1.29;;;;;;;21.52;70.62;99480.56;;;;-57
2021/08/06 01:39:53;;;;;;;2.07;1.34;;;;;;;21.52;70.68;99479.57;;;;-57
2021/08/06 01:42:53;;;;;;;1.72;1.31;;;;;;;21.50;70.67;99478.88;;;;-57
2021/08/06 01:45:53;;;;;;;1.70;1.51;;;;;;;21.51;70.64;99481.07;;;;-56
2021/08/06 01:48:53;;;;;;;1.40;1.30;;;;;;;21.50;70.64;99476.59;;;;-56
2021/08/06 01:51:53;;;;;;;1.41;1.30;;;;;;;21.49;70.65;99479.38;;;;-58
2021/08/06 01:54:53;;;;;;;1.41;1.31;;;;;;;21.49;70.60;99483.03;;;;-57
2021/08/06 01:57:53;;;;;;;1.67;1.25;;;;;;;21.49;70.67;99478.64;;;;-56
2021/08/06 02:00:53;;;;;;;1.30;1.20;;;;;;;21.49;70.64;99481.98;;;;-56
2021/08/06 02:03:53;;;;;;;1.48;1.33;;;;;;;21.48;70.69;99482.25;;;;-56
2021/08/06 02:06:53;;;;;;;1.31;1.21;;;;;;;21.49;70.57;99478.64;;;;-57
2021/08/06 02:09:53;;;;;;;1.39;1.29;;;;;;;21.48;70.64;99474.27;;;;-57
2021/08/06 02:12:53;;;;;;;1.62;1.41;;;;;;;21.48;70.64;99470.20;;;;-56
2021/08/06 02:15:53;;;;;;;1.30;1.20;;;;;;;21.47;70.63;99470.52;;;;-56
2021/08/06 02:18:53;;;;;;;1.40;1.30;;;;;;;21.47;70.65;99470.44;;;;-56
2021/08/06 02:21:53;;;;;;;1.45;1.22;;;;;;;21.47;70.60;99467.92;;;;-57
2021/08/06 02:24:53;;;;;;;1.55;1.29;;;;;;;21.47;70.64;99467.36;;;;-56
2021/08/06 02:27:53;;;;;;;2.22;1.31;;;;;;;21.47;70.67;99466.55;;;;-57
2021/08/06 02:30:53;;;;;;;1.42;1.32;;;;;;;21.47;70.62;99464.42;;;;-56
2021/08/06 02:33:53;;;;;;;1.53;1.25;;;;;;;21.46;70.64;99464.44;;;;-56
2021/08/06 02:36:53;;;;;;;1.50;1.22;;;;;;;21.46;70.67;99462.48;;;;-59
2021/08/06 02:39:53;;;;;;;1.33;1.23;;;;;;;21.46;70.68;99457.36;;;;-56
2021/08/06 02:42:53;;;;;;;1.31;1.21;;;;;;;21.46;70.67;99452.87;;;;-57
2021/08/06 02:45:53;;;;;;;1.42;1.31;;;;;;;21.46;70.62;99448.29;;;;-58
2021/08/06 02:48:53;;;;;;;1.69;1.38;;;;;;;21.45;70.66;99449.84;;;;-57
2021/08/06 02:51:53;;;;;;;1.41;1.20;;;;;;;21.45;70.63;99448.72;;;;-56
2021/08/06 02:54:53;;;;;;;1.28;1.18;;;;;;;21.44;70.63;99448.91;;;;-57
2021/08/06 02:57:53;;;;;;;1.31;1.21;;;;;;;21.44;70.69;99452.91;;;;-58
2021/08/06 03:00:53;;;;;;;1.30;1.20;;;;;;;21.44;70.67;99451.60;;;;-58
2021/08/06 03:03:53;;;;;;;1.30;1.20;;;;;;;21.45;70.66;99458.76;;;;-56
2021/08/06 03:06:53;;;;;;;1.13;1.11;;;;;;;21.44;70.60;99459.67;;;;-57
2021/08/06 03:09:53;;;;;;;1.59;1.41;;;;;;;21.44;70.68;99462.38;;;;-56
2021/08/06 03:12:53;;;;;;;1.37;1.27;;;;;;;21.43;70.64;99454.61;;;;-56
2021/08/06 03:15:53;;;;;;;1.31;1.21;;;;;;;21.44;70.64;99456.51;;;;-58
2021/08/06 03:18:53;;;;;;;1.87;1.23;;;;;;;21.43;70.60;99451.86;;;;-56
2021/08/06 03:21:53;;;;;;;1.91;1.31;;;;;;;21.43;70.64;99429.61;;;;-56
2021/08/06 03:24:53;;;;;;;1.40;1.30;;;;;;;21.42;70.64;99424.33;;;;-56
2021/08/06 03:27:53;;;;;;;1.41;1.30;;;;;;;21.42;70.69;99426.75;;;;-57
2021/08/06 03:30:53;;;;;;;1.31;1.21;;;;;;;21.42;70.67;99428.81;;;;-56
2021/08/06 03:33:53;;;;;;;1.57;1.33;;;;;;;21.41;70.70;99428.46;;;;-57
2021/08/06 03:36:53;;;;;;;1.39;1.28;;;;;;;21.41;70.67;99428.72;;;;-58
2021/08/06 03:39:53;;;;;;;2.17;1.31;;;;;;;21.41;70.69;99429.86;;;;-56
2021/08/06 03:42:53;;;;;;;1.40;1.30;;;;;;;21.40;70.66;99431.99;;;;-57
2021/08/06 03:45:53;;;;;;;1.29;1.19;;;;;;;21.41;70.60;99435.63;;;;-56
2021/08/06 03:48:53;;;;;;;1.43;1.33;;;;;;;21.40;70.65;99434.92;;;;-57
2021/08/06 03:51:53;;;;;;;2.01;1.18;;;;;;;21.40;70.67;99435.34;;;;-56
2021/08/06 03:54:53;;;;;;;1.41;1.20;;;;;;;21.39;70.68;99431.50;;;;-56
2021/08/06 03:57:53;;;;;;;1.30;1.20;;;;;;;21.39;70.69;99436.16;;;;-58
2021/08/06 04:00:53;;;;;;;1.40;1.30;;;;;;;21.39;70.75;99437.14;;;;-57
2021/08/06 04:03:53;;;;;;;1.35;1.14;;;;;;;21.39;70.78;99445.30;;;;-56
2021/08/06 04:06:53;;;;;;;1.15;1.10;;;;;;;21.39;70.71;99441.54;;;;-56
2021/08/06 04:09:53;;;;;;;1.39;1.29;;;;;;;21.39;70.74;99441.47;;;;-58
2021/08/06 04:12:53;;;;;;;1.21;1.16;;;;;;;21.39;70.74;99446.27;;;;-58
2021/08/06 04:15:53;;;;;;;1.20;1.10;;;;;;;21.39;70.69;99441.95;;;;-57
2021/08/06 04:18:53;;;;;;;1.73;1.20;;;;;;;21.38;70.73;99444.83;;;;-58
2021/08/06 04:21:53;;;;;;;1.39;1.20;;;;;;;21.38;70.77;99441.64;;;;-56
2021/08/06 04:24:53;;;;;;;1.25;1.15;;;;;;;21.38;70.72;99436.75;;;;-56
2021/08/06 04:27:53;;;;;;;1.32;1.22;;;;;;;21.38;70.75;99438.23;;;;-56
2021/08/06 04:30:53;;;;;;;1.30;1.20;;;;;;;21.37;70.73;99447.68;;;;-57
2021/08/06 04:33:53;;;;;;;1.40;1.30;;;;;;;21.38;70.74;99451.11;;;;-58
2021/08/06 04:36:54;;;;;;;1.26;1.16;;;;;;;21.38;70.75;99459.41;;;;-58
2021/08/06 04:39:53;;;;;;;1.24;1.14;;;;;;;21.37;70.70;99459.84;;;;-56
2021/08/06 04:42:53;;;;;;;1.31;1.21;;;;;;;21.37;70.76;99455.92;;;;-57
2021/08/06 04:45:53;;;;;;;1.44;1.29;;;;;;;21.37;70.73;99460.72;;;;-56
2021/08/06 04:48:53;;;;;;;1.40;1.30;;;;;;;21.37;70.70;99460.17;;;;-57
2021/08/06 04:51:53;;;;;;;1.29;1.22;;;;;;;21.36;70.75;99460.50;;;;-57
2021/08/06 04:54:53;;;;;;;1.30;1.20;;;;;;;21.35;70.82;99459.72;;;;-51
2021/08/06 04:57:53;;;;;;;1.35;1.25;;;;;;;21.36;70.76;99455.14;;;;-52
2021/08/06 05:00:53;;;;;;;1.30;1.20;;;;;;;21.36;70.73;99452.29;;;;-51
2021/08/06 05:03:53;;;;;;;1.25;1.15;;;;;;;21.36;70.76;99451.23;;;;-53
2021/08/06 05:06:53;;;;;;;1.41;1.22;;;;;;;21.36;70.78;99450.98;;;;-52
2021/08/06 05:09:53;;;;;;;1.29;1.19;;;;;;;21.36;70.76;99451.15;;;;-51
2021/08/06 05:12:53;;;;;;;1.33;1.23;;;;;;;21.35;70.72;99444.87;;;;-52
2021/08/06 05:15:53;;;;;;;1.59;1.15;;;;;;;21.35;70.76;99449.77;;;;-51
2021/08/06 05:18:53;;;;;;;1.43;1.33;;;;;;;21.35;70.71;99448.86;;;;-52
2021/08/06 05:21:53;;;;;;;1.22;1.12;;;;;;;21.35;70.71;99451.89;;;;-53
2021/08/06 05:24:53;;;;;;;1.47;1.20;;;;;;;21.35;70.73;99449.20;;;;-52
2021/08/06 05:27:53;;;;;;;1.25;1.15;;;;;;;21.35;70.73;99451.31;;;;-52
2021/08/06 05:30:53;;;;;;;1.10;1.10;;;;;;;21.34;70.77;99449.77;;;;-51
2021/08/06 05:33:53;;;;;;;1.10;1.10;;;;;;;21.34;70.77;99452.08;;;;-52
2021/08/06 05:36:53;;;;;;;1.35;1.25;;;;;;;21.34;70.81;99455.08;;;;-52
2021/08/06 05:39:53;;;;;;;1.13;1.10;;;;;;;21.34;70.70;99459.06;;;;-52
2021/08/06 05:42:54;;;;;;;1.28;1.20;;;;;;;21.33;70.78;99458.28;;;;-52
2021/08/06 05:45:53;;;;;;;1.25;1.19;;;;;;;21.33;70.74;99464.54;;;;-52
2021/08/06 05:48:53;;;;;;;1.15;1.10;;;;;;;21.33;70.75;99463.89;;;;-52
2021/08/06 05:51:53;;;;;;;1.31;1.21;;;;;;;21.34;70.77;99472.05;;;;-51
2021/08/06 05:54:53;;;;;;;1.20;1.10;;;;;;;21.33;70.72;99473.61;;;;-52
2021/08/06 05:57:53;;;;;;;1.27;1.17;;;;;;;21.33;70.72;99473.50;;;;-52
2021/08/06 06:00:53;;;;;;;1.35;1.25;;;;;;;21.33;70.78;99467.80;;;;-51
2021/08/06 06:03:55;;;;;;;1.52;1.17;;;;;;;21.33;70.70;99468.61;;;;-52
2021/08/06 06:06:53;;;;;;;1.42;1.17;;;;;;;21.32;70.78;99466.11;;;;-52
2021/08/06 06:09:53;;;;;;;3.73;2.09;;;;;;;21.27;72.66;99463.61;;;;-51
2021/08/06 06:12:53;;;;;;;2.37;2.17;;;;;;;21.23;73.13;99465.04;;;;-52
2021/08/06 06:15:53;;;;;;;3.72;2.19;;;;;;;21.18;73.17;99461.86;;;;-52
2021/08/06 06:18:53;;;;;;;3.11;1.93;;;;;;;21.18;73.04;99465.13;;;;-52
2021/08/06 06:21:53;;;;;;;3.27;2.01;;;;;;;21.19;72.86;99466.11;;;;-57
2021/08/06 06:24:53;;;;;;;3.37;1.94;;;;;;;21.20;72.64;99471.52;;;;-58
2021/08/06 06:27:53;;;;;;;2.46;1.93;;;;;;;21.22;72.49;99470.36;;;;-57
2021/08/06 06:30:53;;;;;;;2.89;1.80;;;;;;;21.22;72.32;99473.69;;;;-57
2021/08/06 06:33:53;;;;;;;2.10;1.87;;;;;;;21.24;72.25;99470.99;;;;-56
2021/08/06 06:36:53;;;;;;;2.13;1.73;;;;;;;21.24;72.15;99474.14;;;;-59
2021/08/06 06:39:53;;;;;;;2.26;1.79;;;;;;;21.24;72.10;99476.19;;;;-60
2021/08/06 06:42:53;;;;;;;1.77;1.65;;;;;;;21.25;71.96;99484.02;;;;-58
2021/08/06 06:45:53;;;;;;;2.37;1.67;;;;;;;21.26;71.94;99492.80;;;;-59
2021/08/06 06:48:53;;;;;;;2.21;1.70;;;;;;;21.26;71.85;99494.73;;;;-60
2021/08/06 06:51:53;;;;;;;1.69;1.59;;;;;;;21.25;71.84;99497.61;;;;-59
2021/08/06 06:54:53;;;;;;;1.77;1.65;;;;;;;21.27;71.75;99500.77;;;;-59
2021/08/06 06:57:53;;;;;;;2.53;1.61;;;;;;;21.26;71.74;99495.30;;;;-59
2021/08/06 07:00:54;;;;;;;2.79;1.79;;;;;;;21.26;71.76;99485.95;;;;-59
2021/08/06 07:03:53;;;;;;;1.67;1.57;;;;;;;21.26;71.76;99478.27;;;;-58
2021/08/06 07:06:53;;;;;;;2.37;1.69;;;;;;;21.26;71.66;99485.19;;;;-56
2021/08/06 07:09:53;;;;;;;2.20;1.87;;;;;;;21.26;71.67;99492.62;;;;-56
2021/08/06 07:12:54;;;;;;;2.23;1.80;;;;;;;21.26;71.64;99498.48;;;;-56
2021/08/06 07:15:53;;;;;;;2.29;1.79;;;;;;;21.27;71.57;99504.98;;;;-57
2021/08/06 07:18:53;;;;;;;1.83;1.73;;;;;;;21.25;71.55;99509.02;;;;-58
2021/08/06 07:21:53;;;;;;;2.27;1.79;;;;;;;21.27;71.61;99515.58;;;;-57
2021/08/06 07:24:53;;;;;;;1.73;1.53;;;;;;;21.26;71.59;99521.30;;;;-57
2021/08/06 07:27:54;;;;;;;1.69;1.50;;;;;;;21.27;71.47;99523.73;;;;-58
2021/08/06 07:30:53;;;;;;;3.41;1.75;;;;;;;21.26;71.53;99526.28;;;;-57
2021/08/06 07:33:53;;;;;;;2.88;1.69;;;;;;;21.26;71.60;99526.44;;;;-63
2021/08/06 07:36:53;;;;;;;2.06;1.62;;;;;;;21.27;71.62;99529.45;;;;-56
2021/08/06 07:39:53;;;;;;;2.01;1.71;;;;;;;21.30;71.65;99529.13;;;;-55
2021/08/06 07:42:54;;;;;;;1.85;1.51;;;;;;;21.33;71.70;99533.91;;;;-53
2021/08/06 07:45:53;;;;;;;1.96;1.65;;;;;;;21.35;71.82;99536.16;;;;-54
2021/08/06 07:48:53;;;;;;;2.51;1.74;;;;;;;21.38;71.87;99538.14;;;;-57
2021/08/06 07:51:53;;;;;;;1.67;1.57;;;;;;;21.39;71.89;99542.84;;;;-60
2021/08/06 07:54:53;;;;;;;2.03;1.69;;;;;;;21.41;71.90;99541.68;;;;-61
2021/08/06 07:57:53;;;;;;;2.61;1.71;;;;;;;21.42;71.85;99538.42;;;;-65
2021/08/06 08:00:53;;;;;;;3.83;1.60;;;;;;;21.43;71.92;99537.60;;;;-57
2021/08/06 08:03:53;;;;;;;2.18;1.60;;;;;;;21.45;71.92;99543.36;;;;-51
2021/08/06 08:06:53;;;;;;;1.87;1.73;;;;;;;21.45;71.88;99544.48;;;;-49
2021/08/06 08:09:53;;;;;;;2.05;1.67;;;;;;;21.45;71.64;99539.94;;;;-48
2021/08/06 08:12:53;;;;;;;2.17;1.65;;;;;;;21.46;71.81;99543.09;;;;-52
2021/08/06 08:15:53;;;;;;;3.58;1.69;;;;;;;21.48;71.93;99542.97;;;;-53
2021/08/06 08:18:53;;;;;;;3.55;1.70;;;;;;;21.50;72.02;99545.38;;;;-52
2021/08/06 08:21:53;;;;;;;2.69;1.80;;;;;;;21.50;71.82;99538.64;;;;-52
2021/08/06 08:24:53;;;;;;;3.13;1.69;;;;;;;21.51;71.98;99539.17;;;;-55
2021/08/06 08:27:53;;;;;;;2.31;1.55;;;;;;;21.53;71.93;99545.92;;;;-52
2021/08/06 08:30:53;;;;;;;4.69;1.78;;;;;;;21.54;71.98;99548.98;;;;-51
2021/08/06 08:33:53;;;;;;;2.59;1.54;;;;;;;21.55;72.04;99549.72;;;;-52
2021/08/06 08:36:53;;;;;;;2.80;1.67;;;;;;;21.55;71.96;99550.44;;;;-57
2021/08/06 08:39:53;;;;;;;3.17;1.73;;;;;;;21.56;71.96;99548.87;;;;-57
2021/08/06 08:42:53;;;;;;;2.87;1.70;;;;;;;21.56;71.89;99554.75;;;;-55
2021/08/06 08:45:53;;;;;;;7.30;1.85;;;;;;;21.56;71.89;99547.99;;;;-54
2021/08/06 08:48:53;;;;;;;2.79;1.61;;;;;;;21.56;71.84;99549.46;;;;-54
2021/08/06 08:51:53;;;;;;;3.73;1.60;;;;;;;21.55;71.78;99553.38;;;;-53
2021/08/06 08:54:53;;;;;;;4.39;1.70;;;;;;;21.56;71.75;99559.63;;;;-64
2021/08/06 08:57:53;;;;;;;3.95;1.79;;;;;;;21.57;71.75;99551.55;;;;-50
2021/08/06 09:00:53;;;;;;;2.29;1.67;;;;;;;21.59;71.80;99549.25;;;;-57
2021/08/06 09:03:53;;;;;;;4.05;1.73;;;;;;;21.59;71.80;99554.03;;;;-52
2021/08/06 09:06:53;;;;;;;2.88;1.58;;;;;;;21.60;71.74;99546.30;;;;-51
2021/08/06 09:09:53;;;;;;;3.61;1.79;;;;;;;21.61;71.73;99556.46;;;;-53
2021/08/06 09:12:53;;;;;;;4.95;1.60;;;;;;;21.63;71.82;99557.59;;;;-51
2021/08/06 09:15:53;;;;;;;5.70;1.65;;;;;;;21.64;71.81;99558.19;;;;-52
2021/08/06 09:18:53;;;;;;;1.77;1.60;;;;;;;21.64;71.86;99556.50;;;;-52
2021/08/06 09:21:53;;;;;;;5.29;1.75;;;;;;;21.65;71.83;99544.00;;;;-60
2021/08/06 09:24:53;;;;;;;2.12;1.65;;;;;;;21.66;71.63;99550.18;;;;-53
2021/08/06 09:27:53;;;;;;;4.71;1.65;;;;;;;21.65;71.75;99551.92;;;;-53
2021/08/06 09:30:53;;;;;;;3.39;1.78;;;;;;;21.65;71.66;99560.81;;;;-53
2021/08/06 09:33:53;;;;;;;4.19;1.72;;;;;;;21.64;71.65;99553.56;;;;-53
2021/08/06 09:36:53;;;;;;;2.63;1.53;;;;;;;21.63;71.60;99558.63;;;;-53
2021/08/06 09:39:53;;;;;;;3.05;1.63;;;;;;;21.63;71.52;99554.72;;;;-53
2021/08/06 09:42:53;;;;;;;4.15;1.67;;;;;;;21.62;71.48;99556.43;;;;-53
2021/08/06 09:45:53;;;;;;;2.94;1.81;;;;;;;21.62;71.38;99562.56;;;;-53
2021/08/06 09:48:53;;;;;;;3.38;1.72;;;;;;;21.61;71.35;99565.19;;;;-52
2021/08/06 09:51:53;;;;;;;2.39;1.57;;;;;;;21.63;71.40;99561.64;;;;-50
2021/08/06 09:54:53;;;;;;;4.60;1.68;;;;;;;21.63;71.45;99572.48;;;;-52
2021/08/06 09:57:53;;;;;;;2.79;1.60;;;;;;;21.64;71.56;99561.72;;;;-52
2021/08/06 10:00:53;;;;;;;2.79;1.54;;;;;;;21.66;71.47;99569.41;;;;-52
2021/08/06 10:03:53;;;;;;;4.53;1.65;;;;;;;21.66;71.40;99561.91;;;;-52
2021/08/06 10:06:53;;;;;;;5.65;1.89;;;;;;;21.68;71.34;99564.89;;;;-48
2021/08/06 10:09:53;;;;;;;4.10;1.79;;;;;;;21.69;71.22;99566.84;;;;-54
2021/08/06 10:12:53;;;;;;;12.02;1.91;;;;;;;21.70;71.43;99560.92;;;;-55
2021/08/06 10:15:53;;;;;;;8.04;1.95;;;;;;;21.72;71.47;99566.47;;;;-50
2021/08/06 10:18:53;;;;;;;4.06;1.67;;;;;;;21.73;71.53;99560.66;;;;-53
2021/08/06 10:21:53;;;;;;;6.59;1.71;;;;;;;21.74;71.52;99558.03;;;;-50
2021/08/06 10:24:53;;;;;;;4.89;1.66;;;;;;;21.75;71.47;99560.53;;;;-52
2021/08/06 10:27:53;;;;;;;5.17;1.80;;;;;;;21.75;71.51;99571.22;;;;-52
2021/08/06 10:30:53;;;;;;;5.19;1.71;;;;;;;21.76;71.50;99566.06;;;;-52
2021/08/06 10:33:53;;;;;;;11.94;1.94;;;;;;;21.76;71.47;99556.69;;;;-51
2021/08/06 10:36:53;;;;;;;3.17;1.59;;;;;;;21.77;71.44;99557.65;;;;-52
2021/08/06 10:39:53;;;;;;;5.07;1.77;;;;;;;21.77;71.44;99556.11;;;;-52
2021/08/06 10:42:53;;;;;;;4.28;1.70;;;;;;;21.78;71.47;99561.05;;;;-54
2021/08/06 10:45:53;;;;;;;4.64;1.70;;;;;;;21.78;71.14;99568.81;;;;-53
2021/08/06 10:48:53;;;;;;;6.95;1.57;;;;;;;21.78;71.29;99566.04;;;;-54
2021/08/06 10:51:53;;;;;;;3.47;1.65;;;;;;;21.77;71.40;99569.57;;;;-53
2021/08/06 10:54:53;;;;;;;4.91;1.61;;;;;;;21.76;71.33;99571.20;;;;-53
2021/08/06 10:57:53;;;;;;;5.01;1.68;;;;;;;21.76;71.27;99571.63;;;;-53
2021/08/06 11:00:53;;;;;;;3.62;1.70;;;;;;;21.75;71.24;99564.86;;;;-54
2021/08/06 11:03:54;;;;;;;3.03;1.57;;;;;;;21.75;71.19;99570.16;;;;-54
2021/08/06 11:06:53;;;;;;;3.21;1.79;;;;;;;21.74;71.20;99564.06;;;;-53
2021/08/06 11:09:55;;;;;;;3.79;1.69;;;;;;;21.73;71.19;99568.73;;;;-53
2021/08/06 11:12:53;;;;;;;3.32;1.79;;;;;;;21.74;71.12;99568.06;;;;-53
2021/08/06 11:15:53;;;;;;;3.07;1.57;;;;;;;21.73;71.06;99568.23;;;;-54
2021/08/06 11:18:53;;;;;;;3.47;1.65;;;;;;;21.72;71.05;99565.97;;;;-53
2021/08/06 11:21:53;;;;;;;2.99;1.65;;;;;;;21.72;71.05;99565.41;;;;-53
2021/08/06 11:24:53;;;;;;;2.63;1.70;;;;;;;21.71;71.05;99563.97;;;;-51
2021/08/06 11:27:53;;;;;;;3.31;1.60;;;;;;;21.72;71.04;99564.66;;;;-51
2021/08/06 11:30:53;;;;;;;2.81;1.45;;;;;;;21.72;71.07;99555.27;;;;-61
2021/08/06 11:33:53;;;;;;;2.76;1.51;;;;;;;21.72;71.10;99562.63;;;;-52
2021/08/06 11:36:53;;;;;;;2.67;1.40;;;;;;;21.72;71.16;99566.05;;;;-52
2021/08/06 11:39:53;;;;;;;3.66;1.47;;;;;;;21.72;71.10;99567.18;;;;-52
2021/08/06 11:42:53;;;;;;;5.31;1.86;;;;;;;21.72;71.09;99566.45;;;;-52
2021/08/06 11:45:53;;;;;;;2.37;1.53;;;;;;;21.71;71.09;99561.67;;;;-52
2021/08/06 11:48:53;;;;;;;4.05;1.61;;;;;;;21.71;71.03;99558.83;;;;-52
2021/08/06 11:51:53;;;;;;;3.55;1.57;;;;;;;21.70;70.99;99553.19;;;;-52
2021/08/06 11:54:53;;;;;;;3.41;1.69;;;;;;;21.70;71.02;99548.39;;;;-53
2021/08/06 11:57:53;;;;;;;4.11;1.58;;;;;;;21.70;71.04;99556.03;;;;-52
2021/08/06 12:00:53;;;;;;;1.93;1.50;;;;;;;21.70;70.95;99550.83;;;;-52
2021/08/06 12:03:53;;;;;;;2.31;1.59;;;;;;;21.69;70.95;99550.36;;;;-52
2021/08/06 12:06:53;;;;;;;2.83;1.50;;;;;;;21.69;70.98;99551.59;;;;-52
2021/08/06 12:09:53;;;;;;;2.61;1.59;;;;;;;21.69;70.94;99553.06;;;;-52
2021/08/06 12:12:53;;;;;;;4.78;1.47;;;;;;;21.69;70.96;99555.59;;;;-52
2021/08/06 12:15:53;;;;;;;3.37;1.60;;;;;;;21.69;70.96;99564.81;;;;-52
2021/08/06 12:18:53;;;;;;;1.59;1.39;;;;;;;21.68;70.91;99560.23;;;;-52
2021/08/06 12:21:53;;;;;;;1.98;1.41;;;;;;;21.68;70.94;99558.78;;;;-52
2021/08/06 12:24:53;;;;;;;2.47;1.60;;;;;;;21.68;70.80;99561.72;;;;-52
2021/08/06 12:27:53;;;;;;;2.08;1.39;;;;;;;21.68;70.81;99560.09;;;;-52
2021/08/06 12:30:53;;;;;;;2.79;1.30;;;;;;;21.67;70.81;99556.12;;;;-60
2021/08/06 12:33:53;;;;;;;2.57;1.60;;;;;;;21.67;70.83;99557.35;;;;-60
2021/08/06 12:36:53;;;;;;;4.97;1.60;;;;;;;21.68;70.89;99564.56;;;;-60
2021/08/06 12:39:53;;;;;;;4.87;1.67;;;;;;;21.68;70.90;99561.14;;;;-61
2021/08/06 12:42:53;;;;;;;2.64;1.52;;;;;;;21.68;70.85;99566.20;;;;-62
2021/08/06 12:45:53;;;;;;;5.58;1.51;;;;;;;21.68;70.95;99578.66;;;;-62
2021/08/06 12:48:53;;;;;;;1.85;1.43;;;;;;;21.68;70.84;99580.80;;;;-62
2021/08/06 12:51:53;;;;;;;4.15;1.71;;;;;;;21.67;70.83;99577.62;;;;-60
2021/08/06 12:54:53;;;;;;;2.48;1.40;;;;;;;21.67;70.81;99575.11;;;;-62
2021/08/06 12:57:53;;;;;;;4.05;1.57;;;;;;;21.67;70.88;99571.59;;;;-60
2021/08/06 13:00:53;;;;;;;3.62;1.48;;;;;;;21.67;70.83;99567.20;;;;-61
2021/08/06 13:03:53;;;;;;;2.96;1.57;;;;;;;21.67;70.76;99565.58;;;;-59
2021/08/06 13:06:53;;;;;;;1.93;1.57;;;;;;;21.67;70.85;99571.20;;;;-60
2021/08/06 13:09:53;;;;;;;2.27;1.49;;;;;;;21.66;70.89;99564.93;;;;-59
2021/08/06 13:12:53;;;;;;;3.28;1.49;;;;;;;21.66;70.85;99564.44;;;;-60
2021/08/06 13:15:53;;;;;;;2.74;1.49;;;;;;;21.66;70.78;99566.95;;;;-62
2021/08/06 13:18:53;;;;;;;2.25;1.37;;;;;;;21.65;70.86;99564.38;;;;-62
2021/08/06 13:21:53;;;;;;;3.47;1.77;;;;;;;21.66;70.86;99569.80;;;;-62
2021/08/06 13:24:53;;;;;;;5.36;1.54;;;;;;;21.67;70.83;99570.23;;;;-60
2021/08/06 13:27:53;;;;;;;4.97;1.48;;;;;;;21.66;70.84;99567.13;;;;-62
2021/08/06 13:30:53;;;;;;;3.63;1.47;;;;;;;21.67;70.76;99568.60;;;;-60
2021/08/06 13:33:53;;;;;;;3.23;1.57;;;;;;;21.66;70.88;99570.88;;;;-59
2021/08/06 13:36:53;;;;;;;2.27;1.30;;;;;;;21.66;70.81;99567.54;;;;-60
2021/08/06 13:39:53;;;;;;;2.75;1.31;;;;;;;21.65;70.87;99563.50;;;;-60
2021/08/06 13:42:53;;;;;;;1.90;1.50;;;;;;;21.66;70.82;99572.36;;;;-61
2021/08/06 13:45:53;;;;;;;2.83;1.43;;;;;;;21.65;70.84;99568.71;;;;-61
2021/08/06 13:48:53;;;;;;;2.45;1.50;;;;;;;21.65;70.90;99566.19;;;;-60
2021/08/06 13:51:53;;;;;;;2.01;1.41;;;;;;;21.64;70.87;99559.76;;;;-60
2021/08/06 13:54:53;;;;;;;1.84;1.49;;;;;;;21.64;70.80;99557.21;;;;-62
2021/08/06 13:57:53;;;;;;;1.92;1.33;;;;;;;21.65;70.80;99555.99;;;;-61
2021/08/06 14:00:53;;;;;;;2.99;1.40;;;;;;;21.65;70.78;99563.26;;;;-60
2021/08/06 14:03:53;;;;;;;2.39;1.26;;;;;;;21.65;70.84;99559.51;;;;-61
2021/08/06 14:06:53;;;;;;;2.98;1.46;;;;;;;21.64;70.93;99558.35;;;;-60
2021/08/06 14:09:53;;;;;;;2.25;1.43;;;;;;;21.64;70.91;99549.16;;;;-62
2021/08/06 14:12:53;;;;;;;5.69;1.51;;;;;;;21.64;71.09;99548.66;;;;-61
2021/08/06 14:15:53;;;;;;;2.69;1.45;;;;;;;21.65;71.13;99551.58;;;;-56
2021/08/06 14:18:53;;;;;;;3.96;1.40;;;;;;;21.67;71.14;99544.80;;;;-53
2021/08/06 14:21:53;;;;;;;3.73;1.55;;;;;;;21.67;71.22;99543.87;;;;-55
2021/08/06 14:24:53;;;;;;;3.37;1.44;;;;;;;21.68;71.21;99543.53;;;;-53
2021/08/06 14:27:53;;;;;;;3.36;1.43;;;;;;;21.70;71.26;99547.98;;;;-53
2021/08/06 14:30:53;;;;;;;9.53;1.91;;;;;;;21.70;71.21;99552.45;;;;-56
2021/08/06 14:33:53;;;;;;;3.21;1.53;;;;;;;21.72;71.46;99553.27;;;;-55
2021/08/06 14:36:53;;;;;;;7.17;1.53;;;;;;;21.73;71.38;99552.98;;;;-57
2021/08/06 14:39:53;;;;;;;3.95;1.52;;;;;;;21.74;71.38;99554.05;;;;-60
2021/08/06 14:42:53;;;;;;;4.69;1.70;;;;;;;21.76;70.96;99557.59;;;;-57
2021/08/06 14:45:53;;;;;;;4.67;1.43;;;;;;;21.74;71.18;99559.59;;;;-57
2021/08/06 14:48:53;;;;;;;4.66;1.64;;;;;;;21.74;71.20;99562.69;;;;-57
2021/08/06 14:51:53;;;;;;;3.45;1.61;;;;;;;21.74;71.21;99563.83;;;;-57
2021/08/06 14:54:53;;;;;;;2.69;1.48;;;;;;;21.73;71.16;99560.89;;;;-57
2021/08/06 14:57:53;;;;;;;2.49;1.40;;;;;;;21.73;71.07;99567.20;;;;-57
2021/08/06 15:00:53;;;;;;;4.46;1.57;;;;;;;21.73;71.07;99560.08;;;;-57
2021/08/06 15:03:53;;;;;;;2.74;1.59;;;;;;;21.72;71.13;99562.14;;;;-58
2021/08/06 15:06:53;;;;;;;2.38;1.34;;;;;;;21.71;71.12;99567.63;;;;-50
2021/08/06 15:09:53;;;;;;;4.42;1.54;;;;;;;21.72;71.07;99570.13;;;;-54
2021/08/06 15:12:53;;;;;;;3.18;1.57;;;;;;;21.71;71.15;99570.33;;;;-57
2021/08/06 15:15:53;;;;;;;8.65;1.86;;;;;;;21.73;71.01;99568.73;;;;-50
2021/08/06 15:18:53;;;;;;;10.81;1.65;;;;;;;21.74;71.08;99565.13;;;;-51
2021/08/06 15:21:54;;;;;;;6.61;1.65;;;;;;;21.75;71.15;99564.70;;;;-52
2021/08/06 15:24:54;;;;;;;4.92;1.42;;;;;;;21.76;71.11;99563.69;;;;-51
2021/08/06 15:27:53;;;;;;;5.09;1.65;;;;;;;21.75;71.21;99562.83;;;;-51
2021/08/06 15:30:53;;;;;;;4.83;1.50;;;;;;;21.76;71.23;99564.75;;;;-52
2021/08/06 15:33:53;;;;;;;5.79;1.73;;;;;;;21.77;71.24;99564.03;;;;-49
2021/08/06 15:36:53;;;;;;;2.48;1.35;;;;;;;21.79;71.24;99566.11;;;;-49
2021/08/06 15:39:53;;;;;;;3.30;1.53;;;;;;;21.80;71.23;99566.56;;;;-52
2021/08/06 15:42:53;;;;;;;6.47;1.67;;;;;;;21.81;71.32;99570.70;;;;-48
2021/08/06 15:45:53;;;;;;;4.82;1.60;;;;;;;21.81;71.27;99573.74;;;;-48
2021/08/06 15:48:53;;;;;;;2.91;1.65;;;;;;;21.81;71.28;99568.36;;;;-54
2021/08/06 15:51:53;;;;;;;3.85;1.57;;;;;;;21.82;71.31;99570.19;;;;-52
2021/08/06 15:54:53;;;;;;;3.01;1.45;;;;;;;21.83;71.26;99566.60;;;;-52
2021/08/06 15:57:53;;;;;;;2.33;1.39;;;;;;;21.84;71.30;99568.45;;;;-49
2021/08/06 16:00:53;;;;;;;4.50;1.39;;;;;;;21.85;71.29;99569.25;;;;-53
2021/08/06 16:03:53;;;;;;;2.46;1.43;;;;;;;21.85;71.27;99567.63;;;;-53
2021/08/06 16:06:53;;;;;;;3.45;1.33;;;;;;;21.85;71.29;99568.78;;;;-52
2021/08/06 16:09:53;;;;;;;1.91;1.30;;;;;;;21.86;71.24;99569.14;;;;-51
2021/08/06 16:12:53;;;;;;;3.54;1.35;;;;;;;21.86;71.28;99569.07;;;;-49
2021/08/06 16:15:53;;;;;;;4.00;1.50;;;;;;;21.87;71.27;99560.59;;;;-49
2021/08/06 16:18:53;;;;;;;3.23;1.41;;;;;;;21.88;71.27;99553.23;;;;-52
2021/08/06 16:21:53;;;;;;;2.77;1.50;;;;;;;21.89;71.36;99550.66;;;;-59
2021/08/06 16:24:53;;;;;;;3.67;1.45;;;;;;;21.89;71.27;99552.05;;;;-52
2021/08/06 16:27:53;;;;;;;3.77;1.39;;;;;;;21.89;71.28;99548.94;;;;-48
2021/08/06 16:30:52;;;;;;;3.25;1.39;;;;;;;21.90;71.27;99548.45;;;;-48
2021/08/06 16:33:53;;;;;;;2.47;1.45;;;;;;;21.90;71.21;99554.89;;;;-48
2021/08/06 16:36:53;;;;;;;4.70;1.51;;;;;;;21.90;71.29;99553.59;;;;-48
2021/08/06 16:39:53;;;;;;;2.85;1.32;;;;;;;21.90;71.25;99551.29;;;;-51
2021/08/06 16:42:53;;;;;;;2.12;1.37;;;;;;;21.91;71.15;99552.48;;;;-48
2021/08/06 16:45:53;;;;;;;2.72;1.32;;;;;;;21.91;71.22;99545.47;;;;-52
2021/08/06 16:48:53;;;;;;;2.23;1.43;;;;;;;21.92;71.22;99554.30;;;;-54
2021/08/06 16:51:53;;;;;;;3.14;1.59;;;;;;;21.93;71.23;99556.05;;;;-51
2021/08/06 16:54:53;;;;;;;2.35;1.40;;;;;;;21.94;71.19;99551.58;;;;-52